Historyczne dane pomiarowe

Dodano dane terminowe – wersja testowa.

Dane z okresu 1951-2019

Wersja bazy: 1.34 [2019-03-16, lista zmian], aktualizacja planowana na 2019-04-15

Dane meteo z obszaru Polski uzyskane na podstawie danych udostępnionych przez Instytut Meteorologii i Gospodarki Wodnej – Państwowy Instytut Badawczy.

 

Wybierz Datę:    

       

TemperaturaWilgotnośćWiatrCiśnienieOpadyŚniegCzas trwania zjawisk
 Stacja t tx tn tng RH VA  wxwx mslp ppp RRR   cm mm wxwxwxwxwxwxwx
1956-11-09 -2.4 0.0 -4.0- 81.3- 4.3 2.3---- 0.0------------
1956-11-08 -1.9 4.2 -4.3- 88.8- 4.0 1.3---- 0.0------------
1956-11-07 -0.7 2.5 -2.0- 89.3- 5.3 2.3---- 0.0-- 1---------
1956-11-06 0.7 3.0 -0.6- 89.8- 4.0 2.3---- 0.6------------
1956-11-05 3.2 7.2 0.5- 87.3- 5.0 2.7---- 1.5------------
1956-11-04 1.5 3.7 -3.5- 78.0- 7.7 2.3---- 0.1------------
1956-11-03 0.1 5.2 -4.3- 89.3- 4.7 1.0---- 0.0------------
1956-11-02 0.2 5.7 -2.7- 88.3- 4.0 0.7---- 0.0------------
1956-11-01 0.4 2.5 -6.0- 94.8- 8.0 2.3---- 0.2------------
1956-10-31 -4.8 1.2 -8.7- 77.3- 2.3 3.0---- 0.0------------
1956-10-30 -4.0 -0.7 -6.1- 92.5- 5.3 3.3---- 0.0------------
1956-10-29 0.4 4.7 -1.2- 99.0- 8.0 5.0---- 1.7------------
1956-10-28 6.1 8.2 3.9- 94.5- 8.0 5.7---- 5.2------------
1956-10-27 6.4 6.9 4.5- 96.3- 8.0 5.3---- 8.9------------
1956-10-26 6.2 9.2 4.9- 94.0- 8.0 0.3---- 0.0------------
1956-10-25 10.6 14.9 8.7- 84.3- 7.3 2.7---- 0.2------------
1956-10-24 12.2 14.7 8.3- 87.0- 6.7 3.3---- 0.0------------
1956-10-23 10.0 12.7 8.3- 80.3- 7.7 3.3---- 0.0------------
1956-10-22 11.6 13.4 10.3- 79.0- 7.3 4.0---- 0.0------------
1956-10-21 12.4 15.7 8.9- 84.8- 8.0 2.7---- 0.0------------
1956-10-20 9.2 12.2 4.8- 92.5- 8.0 1.7---- 0.1------------
1956-10-19 10.2 13.1 7.2- 91.0- 8.0 2.7---- 0.2------------
1956-10-18 11.2 13.2 4.6- 93.3- 8.0 1.7---- 1.1------------
1956-10-17 7.5 15.1 -2.5- 70.3- 1.7 2.0---- 0.0------------
1956-10-16 4.2 14.1 -1.3- 87.0- 2.7 0.7---- 0.0------------
1956-10-15 4.1 12.4 0.7- 84.5- 0.7 2.0---- 0.0------------
1956-10-14 7.1 11.7 4.8- 74.5- 0.7 4.3---- 0.0------------
1956-10-13 10.0 13.2 7.9- 76.8- 7.7 10.0---- 4.4------------
1956-10-12 9.8 11.7 7.8- 83.0- 7.7 5.3---- 0.0------------
1956-10-11 9.3 12.2 4.2- 84.8- 7.3 3.0---- 0.0------------
1956-10-10 5.4 11.4 -1.8- 76.0- 5.0 2.7---- 0.0------------
1956-10-09 5.9 11.4 2.9- 96.0- 6.0 3.0---- 0.4------------
1956-10-08 5.3 9.5 3.4- 85.0- 7.0 2.3---- 1.6------------
1956-10-07 6.0 8.4 4.1- 90.3- 6.0 5.7---- 2.9------------
1956-10-06 6.6 8.9 1.5- 91.0- 8.0 2.0---- 0.0------------
1956-10-05 6.9 11.7 3.8- 92.3- 4.3 1.7---- 1.2------------
1956-10-04 8.0 14.5 2.6- 95.3- 6.3 2.0---- 0.5------------
1956-10-03 10.9 15.4 6.8- 91.5- 5.0 4.7---- 0.6------------
1956-10-02 14.7 22.7 7.5- 85.0- 6.3 2.7---- 41.8------------
1956-10-01 12.2 19.6 3.5- 91.8- 3.3 2.3---- 2.0------------
1956-09-30 11.8 18.9 8.4- 82.3- 4.0 3.7---- 0.0------------
1956-09-29 13.8 18.1 11.1- 78.0- 4.7 6.0---- 0.0------------
1956-09-28 15.6 18.7 12.9- 82.3- 6.7 4.3---- 1.2------------
1956-09-27 16.4 22.7 7.3- 76.3- 3.3 3.3---- 0.0------------
1956-09-26 13.7 23.2 3.1- 72.3- 0.0 2.3---- 0.0------------
1956-09-25 10.0 19.2 -0.3- 81.3- 0.0 1.7---- 0.0------------
1956-09-24 8.1 16.3 1.5- 63.5- 0.0 2.3---- 0.0------------
1956-09-23 9.6 17.4 5.1- 79.3- 2.0 2.7---- 0.0------------
1956-09-22 11.6 19.2 3.6- 82.8- 0.3 2.3---- 0.0------------
1956-09-21 9.9 19.7 1.4- 81.3- 0.7 1.0---- 0.0------------
1956-09-20 10.0 17.2 1.9- 91.0- 2.0 1.0---- 0.0------------
1956-09-19 7.8 17.5 0.6- 84.5- 1.3 0.7---- 0.0------------
1956-09-18 8.8 15.7 4.3- 87.8- 3.7 1.3---- 0.9------------
1956-09-17 9.0 15.2 5.9- 79.3- 5.0 3.7---- 0.0------------
1956-09-16 10.4 16.4 4.9- 84.0- 6.0 4.3---- 3.9------------
1956-09-15 11.0 16.9 7.1- 80.3- 4.3 3.0---- 0.9------------
1956-09-14 10.8 18.0 4.4- 84.8- 1.7 1.0---- 0.0------------
1956-09-13 7.6 11.7 6.0- 94.8- 3.3 3.3---- 4.0------------
1956-09-12 11.2 15.4 8.2- 80.8- 6.7 7.3---- 6.6------------
1956-09-11 14.0 20.7 10.7- 87.0- 6.7 2.0---- 21.0------------
264.8 ms

 

Źródłem pochodzenia danych jest Instytut Meteorologii i Gospodarki Wodnej – Państwowy Instytut Badawczy. Dane Instytutu Meteorologii i Gospodarki Wodnej – Państwowego Instytutu Badawczego zostały przetworzone.

Dane źródłowe można odnaleźć na stronie https://dane.imgw.pl